Time,TemperatureF,DewpointF,PressureIn,WindDirection,WindDirectionDegrees,WindSpeedMPH,WindSpeedGustMPH,Humidity,HourlyPrecipIn,Conditions,Clouds,dailyrainin,SoftwareType,DateUTC
2013-02-18 00:04:00,12.1,9.7,30.30,NNW,344,11.0,11.0,90,0.00,,,0.00,Wunderground v.1.15,2013-02-18 05:04:00,
2013-02-18 00:09:00,12.1,10.0,30.30,North,355,11.0,12.0,91,0.00,,,0.00,Wunderground v.1.15,2013-02-18 05:09:00,
2013-02-18 00:14:00,12.1,10.0,30.31,North,355,10.0,12.0,91,0.00,,,0.00,Wunderground v.1.15,2013-02-18 05:14:00,
2013-02-18 00:19:00,12.1,10.0,30.31,NNW,346,11.0,11.0,91,0.00,,,0.00,Wunderground v.1.15,2013-02-18 05:19:00,
2013-02-18 00:24:00,12.0,9.9,30.31,North,5,11.0,14.0,91,0.00,,,0.00,Wunderground v.1.15,2013-02-18 05:24:00,
2013-02-18 00:29:00,12.0,9.9,30.31,North,5,11.0,11.0,91,0.00,,,0.00,Wunderground v.1.15,2013-02-18 05:29:00,
2013-02-18 00:34:00,11.9,9.8,30.32,NNW,347,11.0,19.0,91,0.00,,,0.00,Wunderground v.1.15,2013-02-18 05:34:00,
2013-02-18 00:39:00,12.1,10.0,30.32,NNW,346,11.0,11.0,91,0.00,,,0.00,Wunderground v.1.15,2013-02-18 05:39:00,
2013-02-18 00:44:00,12.1,10.0,30.32,North,355,10.0,19.0,91,0.00,,,0.00,Wunderground v.1.15,2013-02-18 05:44:00,
2013-02-18 00:54:00,12.1,10.0,30.32,NNW,339,10.0,19.0,91,0.00,,,0.00,Wunderground v.1.15,2013-02-18 05:54:00,
2013-02-18 01:04:00,12.1,10.0,30.33,NNW,340,10.0,12.0,91,0.00,,,0.00,Wunderground v.1.15,2013-02-18 06:04:00,
2013-02-18 01:09:00,12.1,10.0,30.33,North,355,10.0,10.0,91,0.00,,,0.00,Wunderground v.1.15,2013-02-18 06:09:00,
2013-02-18 01:14:00,12.1,10.0,30.33,NNW,339,10.0,11.0,91,0.00,,,0.00,Wunderground v.1.15,2013-02-18 06:14:00,
2013-02-18 01:19:00,12.0,9.9,30.33,NNW,341,9.0,12.0,91,0.00,,,0.00,Wunderground v.1.15,2013-02-18 06:19:00,
2013-02-18 01:24:00,12.0,9.9,30.33,North,355,10.0,12.0,91,0.00,,,0.00,Wunderground v.1.15,2013-02-18 06:24:00,
2013-02-18 01:29:00,12.0,9.9,30.34,NNW,333,9.0,10.0,91,0.00,,,0.00,Wunderground v.1.15,2013-02-18 06:29:00,
2013-02-18 01:34:00,12.0,9.9,30.34,North,355,9.0,17.0,91,0.00,,,0.00,Wunderground v.1.15,2013-02-18 06:34:00,
2013-02-18 01:39:00,11.9,9.8,30.34,NNW,338,10.0,17.0,91,0.00,,,0.00,Wunderground v.1.15,2013-02-18 06:39:00,
2013-02-18 01:44:00,11.9,9.8,30.34,NNW,340,11.0,17.0,91,0.00,,,0.00,Wunderground v.1.15,2013-02-18 06:44:00,
2013-02-18 01:49:00,11.9,9.8,30.34,North,5,11.0,17.0,91,0.00,,,0.00,Wunderground v.1.15,2013-02-18 06:49:00,
2013-02-18 01:54:00,11.8,9.7,30.34,NNE,14,11.0,17.0,91,0.00,,,0.00,Wunderground v.1.15,2013-02-18 06:54:00,
2013-02-18 01:59:00,11.8,9.4,30.34,NNW,337,11.0,11.0,90,0.00,,,0.00,Wunderground v.1.15,2013-02-18 06:59:00,
2013-02-18 02:04:00,11.7,9.6,30.34,NNE,13,11.0,13.0,91,0.00,,,0.00,Wunderground v.1.15,2013-02-18 07:04:00,
2013-02-18 02:14:00,11.6,9.5,30.34,North,5,11.0,11.0,91,0.00,,,0.00,Wunderground v.1.15,2013-02-18 07:14:00,
2013-02-18 02:19:00,11.6,9.5,30.35,NNE,16,10.0,12.0,91,0.00,,,0.00,Wunderground v.1.15,2013-02-18 07:19:00,
2013-02-18 02:24:00,11.6,9.5,30.34,North,355,9.0,12.0,91,0.00,,,0.00,Wunderground v.1.15,2013-02-18 07:24:00,
2013-02-18 02:29:00,11.6,9.5,30.35,North,360,9.0,10.0,91,0.00,,,0.00,Wunderground v.1.15,2013-02-18 07:29:00,
2013-02-18 02:39:00,11.6,9.5,30.35,NNW,333,8.0,8.0,91,0.00,,,0.00,Wunderground v.1.15,2013-02-18 07:39:00,
2013-02-18 02:44:00,11.6,9.5,30.35,NNW,345,8.0,20.0,91,0.00,,,0.00,Wunderground v.1.15,2013-02-18 07:44:00,
2013-02-18 02:49:00,11.6,9.5,30.35,North,5,8.0,8.0,91,0.00,,,0.00,Wunderground v.1.15,2013-02-18 07:49:00,
2013-02-18 02:54:00,11.6,9.5,30.35,North,351,8.0,9.0,91,0.00,,,0.00,Wunderground v.1.15,2013-02-18 07:54:00,
2013-02-18 02:59:00,11.6,9.5,30.36,NNW,342,8.0,8.0,91,0.00,,,0.00,Wunderground v.1.15,2013-02-18 07:59:00,
2013-02-18 03:09:00,11.7,9.6,30.36,North,355,8.0,10.0,91,0.00,,,0.00,Wunderground v.1.15,2013-02-18 08:09:00,
2013-02-18 03:14:00,11.7,9.6,30.36,NNW,339,8.0,10.0,91,0.00,,,0.00,Wunderground v.1.15,2013-02-18 08:14:00,
2013-02-18 03:19:00,11.7,9.6,30.36,NNE,12,8.0,8.0,91,0.00,,,0.00,Wunderground v.1.15,2013-02-18 08:19:00,
2013-02-18 03:29:00,11.8,9.7,30.36,North,5,7.0,7.0,91,0.00,,,0.00,Wunderground v.1.15,2013-02-18 08:29:00,
2013-02-18 03:34:00,11.7,9.6,30.37,NNW,346,7.0,16.0,91,0.00,,,0.00,Wunderground v.1.15,2013-02-18 08:34:00,
2013-02-18 03:44:00,11.8,9.7,30.37,NNE,12,7.0,16.0,91,0.00,,,0.00,Wunderground v.1.15,2013-02-18 08:44:00,
2013-02-18 03:49:00,11.8,9.7,30.37,North,360,6.0,6.0,91,0.00,,,0.00,Wunderground v.1.15,2013-02-18 08:49:00,
2013-02-18 03:54:00,11.8,9.7,30.38,North,5,6.0,9.0,91,0.00,,,0.00,Wunderground v.1.15,2013-02-18 08:54:00,
2013-02-18 03:59:00,11.9,9.8,30.38,North,355,7.0,7.0,91,0.00,,,0.00,Wunderground v.1.15,2013-02-18 08:59:00,
2013-02-18 04:09:00,11.9,9.5,30.38,NNW,336,8.0,9.0,90,0.00,,,0.00,Wunderground v.1.15,2013-02-18 09:09:00,
2013-02-18 04:14:00,11.9,9.5,30.39,NNW,345,8.0,9.0,90,0.00,,,0.00,Wunderground v.1.15,2013-02-18 09:14:00,
2013-02-18 04:24:00,11.8,9.4,30.39,NNW,336,8.0,9.0,90,0.00,,,0.00,Wunderground v.1.15,2013-02-18 09:24:00,
2013-02-18 04:29:00,11.8,9.4,30.39,NW,317,9.0,10.0,90,0.00,,,0.00,Wunderground v.1.15,2013-02-18 09:29:00,
2013-02-18 04:34:00,11.8,9.4,30.40,NNW,342,9.0,12.0,90,0.00,,,0.00,Wunderground v.1.15,2013-02-18 09:34:00,
2013-02-18 04:39:00,11.7,9.3,30.40,NNW,348,9.0,9.0,90,0.00,,,0.00,Wunderground v.1.15,2013-02-18 09:39:00,
2013-02-18 04:44:00,11.6,9.2,30.40,NNW,327,10.0,10.0,90,0.00,,,0.00,Wunderground v.1.15,2013-02-18 09:44:00,
2013-02-18 04:54:00,11.4,9.0,30.41,NNW,343,10.0,12.0,90,0.00,,,0.00,Wunderground v.1.15,2013-02-18 09:54:00,
2013-02-18 04:59:00,11.2,8.8,30.41,NNW,337,9.0,9.0,90,0.00,,,0.00,Wunderground v.1.15,2013-02-18 09:59:00,
2013-02-18 05:09:00,10.8,8.4,30.41,NNW,338,9.0,9.0,90,0.00,,,0.00,Wunderground v.1.15,2013-02-18 10:09:00,
2013-02-18 05:14:00,10.6,8.2,30.42,North,351,8.0,9.0,90,0.00,,,0.00,Wunderground v.1.15,2013-02-18 10:14:00,
2013-02-18 05:19:00,10.5,8.1,30.42,NNW,336,8.0,8.0,90,0.00,,,0.00,Wunderground v.1.15,2013-02-18 10:19:00,
2013-02-18 05:29:00,10.4,8.0,30.42,NNW,340,8.0,9.0,90,0.00,,,0.00,Wunderground v.1.15,2013-02-18 10:29:00,
2013-02-18 05:34:00,10.5,8.1,30.42,NW,323,8.0,10.0,90,0.00,,,0.00,Wunderground v.1.15,2013-02-18 10:34:00,
2013-02-18 05:39:00,10.6,8.2,30.42,NNW,344,8.0,8.0,90,0.00,,,0.00,Wunderground v.1.15,2013-02-18 10:39:00,
2013-02-18 05:44:00,10.5,8.1,30.42,NNW,333,7.0,12.0,90,0.00,,,0.00,Wunderground v.1.15,2013-02-18 10:44:00,
2013-02-18 05:54:00,10.5,8.1,30.42,North,355,7.0,12.0,90,0.00,,,0.00,Wunderground v.1.15,2013-02-18 10:54:00,
2013-02-18 05:59:00,10.4,8.0,30.42,NW,315,7.0,7.0,90,0.00,,,0.00,Wunderground v.1.15,2013-02-18 10:59:00,
2013-02-18 06:09:00,10.4,8.3,30.43,NW,323,6.0,6.0,91,0.00,,,0.00,Wunderground v.1.15,2013-02-18 11:09:00,
2013-02-18 06:14:00,10.3,8.2,30.43,NW,326,5.0,6.0,91,0.00,,,0.00,Wunderground v.1.15,2013-02-18 11:14:00,
2013-02-18 06:19:00,10.5,8.4,30.43,NW,321,5.0,5.0,91,0.00,,,0.00,Wunderground v.1.15,2013-02-18 11:19:00,
2013-02-18 06:24:00,10.6,8.5,30.43,NNW,334,5.0,5.0,91,0.00,,,0.00,Wunderground v.1.15,2013-02-18 11:24:00,
2013-02-18 06:29:00,10.5,8.4,30.43,NNW,336,4.0,4.0,91,0.00,,,0.00,Wunderground v.1.15,2013-02-18 11:29:00,
2013-02-18 06:39:00,10.8,8.7,30.44,NNW,338,6.0,15.0,91,0.00,,,0.00,Wunderground v.1.15,2013-02-18 11:39:00,
2013-02-18 06:44:00,10.8,8.7,30.44,NNW,329,6.0,15.0,91,0.00,,,0.00,Wunderground v.1.15,2013-02-18 11:44:00,
2013-02-18 06:49:00,10.9,8.8,30.44,NNW,348,6.0,6.0,91,0.00,,,0.00,Wunderground v.1.15,2013-02-18 11:49:00,
2013-02-18 06:59:00,11.0,8.9,30.44,NNW,334,4.0,4.0,91,0.00,,,0.00,Wunderground v.1.15,2013-02-18 11:59:00,
2013-02-18 07:09:00,11.2,9.1,30.44,NNW,338,5.0,5.0,91,0.00,,,0.00,Wunderground v.1.15,2013-02-18 12:09:00,
2013-02-18 07:14:00,11.2,9.1,30.44,NNW,338,5.0,5.0,91,0.00,,,0.00,Wunderground v.1.15,2013-02-18 12:14:00,
2013-02-18 07:19:00,11.2,9.1,30.44,NNW,338,4.0,4.0,91,0.00,,,0.00,Wunderground v.1.15,2013-02-18 12:19:00,
2013-02-18 07:24:00,11.3,9.2,30.44,NNW,338,4.0,5.0,91,0.00,,,0.00,Wunderground v.1.15,2013-02-18 12:24:00,
2013-02-18 07:29:00,11.4,9.3,30.45,NNW,327,4.0,5.0,91,0.00,,,0.00,Wunderground v.1.15,2013-02-18 12:29:00,
2013-02-18 07:34:00,11.4,9.3,30.45,NW,321,4.0,10.0,91,0.00,,,0.00,Wunderground v.1.15,2013-02-18 12:34:00,
2013-02-18 07:44:00,11.3,9.2,30.45,NW,323,4.0,10.0,91,0.00,,,0.00,Wunderground v.1.15,2013-02-18 12:44:00,
2013-02-18 07:49:00,11.3,9.2,30.45,NW,323,4.0,4.0,91,0.00,,,0.00,Wunderground v.1.15,2013-02-18 12:49:00,
2013-02-18 07:59:00,11.5,9.4,30.45,NW,322,4.0,5.0,91,0.00,,,0.00,Wunderground v.1.15,2013-02-18 12:59:00,
2013-02-18 08:09:00,12.0,9.9,30.46,NW,317,5.0,5.0,91,0.00,,,0.00,Wunderground v.1.15,2013-02-18 13:09:00,
2013-02-18 08:14:00,12.3,10.2,30.46,NW,323,5.0,5.0,91,0.00,,,0.00,Wunderground v.1.15,2013-02-18 13:14:00,
2013-02-18 08:24:00,12.5,10.4,30.46,NNW,338,5.0,6.0,91,0.00,,,0.00,Wunderground v.1.15,2013-02-18 13:24:00,
2013-02-18 08:29:00,12.6,10.2,30.46,NNW,345,5.0,7.0,90,0.00,,,0.00,Wunderground v.1.15,2013-02-18 13:29:00,
2013-02-18 08:34:00,12.8,10.4,30.46,NW,319,6.0,9.0,90,0.00,,,0.00,Wunderground v.1.15,2013-02-18 13:34:00,
2013-02-18 08:39:00,13.0,10.6,30.46,NNW,340,6.0,6.0,90,0.00,,,0.00,Wunderground v.1.15,2013-02-18 13:39:00,
2013-02-18 08:44:00,13.3,10.7,30.46,NNW,327,7.0,9.0,89,0.00,,,0.00,Wunderground v.1.15,2013-02-18 13:44:00,
2013-02-18 08:49:00,13.5,10.9,30.46,NNW,341,7.0,10.0,89,0.00,,,0.00,Wunderground v.1.15,2013-02-18 13:49:00,
2013-02-18 08:59:00,13.9,11.0,30.46,North,360,7.0,8.0,88,0.00,,,0.00,Wunderground v.1.15,2013-02-18 13:59:00,
2013-02-18 09:04:00,14.0,11.1,30.46,North,360,7.0,8.0,88,0.00,,,0.00,Wunderground v.1.15,2013-02-18 14:04:00,
2013-02-18 09:14:00,14.4,11.2,30.46,NW,321,7.0,8.0,87,0.00,,,0.00,Wunderground v.1.15,2013-02-18 14:14:00,
2013-02-18 09:19:00,14.5,11.3,30.46,North,9,6.0,9.0,87,0.00,,,0.00,Wunderground v.1.15,2013-02-18 14:19:00,
2013-02-18 09:24:00,14.6,11.2,30.46,NNW,344,6.0,9.0,86,0.00,,,0.00,Wunderground v.1.15,2013-02-18 14:24:00,
2013-02-18 09:34:00,15.0,11.6,30.46,NNW,328,5.0,9.0,86,0.00,,,0.00,Wunderground v.1.15,2013-02-18 14:34:00,
2013-02-18 09:39:00,15.0,11.3,30.46,North,350,6.0,6.0,85,0.00,,,0.00,Wunderground v.1.15,2013-02-18 14:39:00,
2013-02-18 09:44:00,15.0,11.3,30.46,North,360,6.0,7.0,85,0.00,,,0.00,Wunderground v.1.15,2013-02-18 14:44:00,
2013-02-18 09:49:00,15.0,11.3,30.46,NNW,338,6.0,6.0,85,0.00,,,0.00,Wunderground v.1.15,2013-02-18 14:49:00,
2013-02-18 09:54:00,15.2,11.2,30.46,NNW,335,6.0,9.0,84,0.00,,,0.00,Wunderground v.1.15,2013-02-18 14:54:00,
2013-02-18 09:59:00,15.3,11.3,30.45,North,360,6.0,6.0,84,0.00,,,0.00,Wunderground v.1.15,2013-02-18 14:59:00,
2013-02-18 10:04:00,15.5,11.5,30.45,NNW,347,6.0,9.0,84,0.00,,,0.00,Wunderground v.1.15,2013-02-18 15:04:00,
2013-02-18 10:14:00,16.0,11.7,30.45,NNW,343,5.0,6.0,83,0.00,,,0.00,Wunderground v.1.15,2013-02-18 15:14:00,
2013-02-18 10:19:00,16.1,11.8,30.45,North,349,4.0,5.0,83,0.00,,,0.00,Wunderground v.1.15,2013-02-18 15:19:00,
2013-02-18 10:24:00,16.2,11.7,30.45,North,355,4.0,5.0,82,0.00,,,0.00,Wunderground v.1.15,2013-02-18 15:24:00,
2013-02-18 10:29:00,16.5,12.0,30.45,NNW,338,4.0,5.0,82,0.00,,,0.00,Wunderground v.1.15,2013-02-18 15:29:00,
2013-02-18 10:39:00,16.7,11.9,30.45,NNW,332,5.0,11.0,81,0.00,,,0.00,Wunderground v.1.15,2013-02-18 15:39:00,
2013-02-18 10:44:00,16.8,11.7,30.45,NNW,333,5.0,11.0,80,0.00,,,0.00,Wunderground v.1.15,2013-02-18 15:44:00,
2013-02-18 10:49:00,17.1,12.0,30.45,NW,323,5.0,5.0,80,0.00,,,0.00,Wunderground v.1.15,2013-02-18 15:49:00,
2013-02-18 10:54:00,17.4,12.3,30.45,NW,317,5.0,11.0,80,0.00,,,0.00,Wunderground v.1.15,2013-02-18 15:54:00,
2013-02-18 11:04:00,17.5,11.8,30.45,NW,313,5.0,6.0,78,0.00,,,0.00,Wunderground v.1.15,2013-02-18 16:04:00,
2013-02-18 11:14:00,17.6,11.9,30.45,NNW,336,4.0,6.0,78,0.00,,,0.00,Wunderground v.1.15,2013-02-18 16:14:00,
2013-02-18 11:19:00,18.1,12.4,30.45,WNW,296,4.0,4.0,78,0.00,,,0.00,Wunderground v.1.15,2013-02-18 16:19:00,
2013-02-18 11:24:00,18.3,12.6,30.44,NNW,341,4.0,4.0,78,0.00,,,0.00,Wunderground v.1.15,2013-02-18 16:24:00,
2013-02-18 11:29:00,18.6,12.9,30.44,NW,317,3.0,4.0,78,0.00,,,0.00,Wunderground v.1.15,2013-02-18 16:29:00,
2013-02-18 11:34:00,18.4,12.1,30.45,North,360,3.0,10.0,76,0.00,,,0.00,Wunderground v.1.15,2013-02-18 16:34:00,
2013-02-18 11:39:00,18.7,12.4,30.45,North,360,3.0,3.0,76,0.00,,,0.00,Wunderground v.1.15,2013-02-18 16:39:00,
2013-02-18 11:44:00,18.8,12.2,30.45,NW,307,3.0,10.0,75,0.00,,,0.00,Wunderground v.1.15,2013-02-18 16:44:00,
2013-02-18 11:49:00,18.5,12.2,30.45,WNW,298,3.0,10.0,76,0.00,,,0.00,Wunderground v.1.15,2013-02-18 16:49:00,
2013-02-18 11:54:00,18.8,12.5,30.45,NW,305,3.0,10.0,76,0.00,,,0.00,Wunderground v.1.15,2013-02-18 16:54:00,
2013-02-18 11:59:00,18.9,12.3,30.44,NW,310,2.0,9.0,75,0.00,,,0.00,Wunderground v.1.15,2013-02-18 16:59:00,
2013-02-18 12:09:00,19.3,12.7,30.44,North,355,5.0,5.0,75,0.00,,,0.00,Wunderground v.1.15,2013-02-18 17:09:00,
2013-02-18 12:14:00,19.4,12.5,30.43,North,355,4.0,5.0,74,0.00,,,0.00,Wunderground v.1.15,2013-02-18 17:14:00,
2013-02-18 12:24:00,20.0,13.3,30.43,North,355,4.0,6.0,75,0.00,,,0.00,Wunderground v.1.15,2013-02-18 17:24:00,
2013-02-18 12:29:00,20.2,12.9,30.43,North,355,3.0,3.0,73,0.00,,,0.00,Wunderground v.1.15,2013-02-18 17:29:00,
2013-02-18 13:04:00,21.6,14.3,30.41,NNW,328,2.0,6.0,73,0.00,,,0.00,Wunderground v.1.15,2013-02-18 18:04:00,
2013-02-18 13:09:00,21.6,14.0,30.42,WSW,248,4.0,6.0,72,0.00,,,0.00,Wunderground v.1.15,2013-02-18 18:09:00,
2013-02-18 13:14:00,22.0,14.0,30.41,West,267,4.0,6.0,71,0.00,,,0.00,Wunderground v.1.15,2013-02-18 18:14:00,
2013-02-18 13:19:00,22.1,14.4,30.41,NW,306,4.0,5.0,72,0.00,,,0.00,Wunderground v.1.15,2013-02-18 18:19:00,
2013-02-18 13:24:00,22.0,14.7,30.41,NW,325,4.0,5.0,73,0.00,,,0.00,Wunderground v.1.15,2013-02-18 18:24:00,
2013-02-18 13:29:00,21.7,14.4,30.41,NW,309,5.0,5.0,73,0.00,,,0.00,Wunderground v.1.15,2013-02-18 18:29:00,
2013-02-18 13:39:00,21.7,13.7,30.40,NNW,344,4.0,4.0,71,0.00,,,0.00,Wunderground v.1.15,2013-02-18 18:39:00,
2013-02-18 13:44:00,21.7,13.7,30.40,NNW,339,3.0,9.0,71,0.00,,,0.00,Wunderground v.1.15,2013-02-18 18:44:00,
2013-02-18 13:49:00,22.4,14.7,30.40,WSW,245,2.0,9.0,72,0.00,,,0.00,Wunderground v.1.15,2013-02-18 18:49:00,
2013-02-18 13:54:00,22.6,14.0,30.40,WSW,247,2.0,9.0,69,0.00,,,0.00,Wunderground v.1.15,2013-02-18 18:54:00,
2013-02-18 13:59:00,23.1,14.1,30.39,WSW,247,2.0,2.0,68,0.00,,,0.00,Wunderground v.1.15,2013-02-18 18:59:00,
2013-02-18 14:09:00,24.1,14.4,30.38,WSW,257,1.0,4.0,66,0.00,,,0.00,Wunderground v.1.15,2013-02-18 19:09:00,
2013-02-18 14:14:00,24.0,13.9,30.38,WSW,249,2.0,4.0,65,0.00,,,0.00,Wunderground v.1.15,2013-02-18 19:14:00,
2013-02-18 14:19:00,24.1,14.4,30.38,SSW,204,2.0,5.0,66,0.00,,,0.00,Wunderground v.1.15,2013-02-18 19:19:00,
2013-02-18 14:24:00,24.1,14.4,30.37,SW,233,2.0,5.0,66,0.00,,,0.00,Wunderground v.1.15,2013-02-18 19:24:00,
2013-02-18 14:34:00,23.9,14.2,30.37,SSW,200,2.0,10.0,66,0.00,,,0.00,Wunderground v.1.15,2013-02-18 19:34:00,
2013-02-18 14:44:00,24.1,14.7,30.37,SSW,200,2.0,10.0,67,0.00,,,0.00,Wunderground v.1.15,2013-02-18 19:44:00,
2013-02-18 14:49:00,24.2,14.5,30.36,SSW,200,1.0,1.0,66,0.00,,,0.00,Wunderground v.1.15,2013-02-18 19:49:00,
2013-02-18 14:54:00,24.4,14.3,30.36,SSW,200,1.0,10.0,65,0.00,,,0.00,Wunderground v.1.15,2013-02-18 19:54:00,
2013-02-18 14:59:00,24.9,15.1,30.36,SSW,202,0.0,4.0,66,0.00,,,0.00,Wunderground v.1.15,2013-02-18 19:59:00,
2013-02-18 15:09:00,24.4,14.7,30.35,SSW,203,4.0,4.0,66,0.00,,,0.00,Wunderground v.1.15,2013-02-18 20:09:00,
2013-02-18 15:14:00,24.4,14.7,30.35,SSW,200,3.0,7.0,66,0.00,,,0.00,Wunderground v.1.15,2013-02-18 20:14:00,
2013-02-18 15:19:00,24.6,15.2,30.34,SSW,200,3.0,7.0,67,0.00,,,0.00,Wunderground v.1.15,2013-02-18 20:19:00,
2013-02-18 15:29:00,25.1,15.0,30.34,WSW,238,3.0,3.0,65,0.00,,,0.00,Wunderground v.1.15,2013-02-18 20:29:00,
2013-02-18 15:34:00,25.4,16.3,30.33,SSW,199,3.0,6.0,68,0.00,,,0.00,Wunderground v.1.15,2013-02-18 20:34:00,
2013-02-18 15:39:00,25.4,15.6,30.33,SSW,205,3.0,8.0,66,0.00,,,0.00,Wunderground v.1.15,2013-02-18 20:39:00,
2013-02-18 15:49:00,25.6,16.2,30.34,SSW,192,3.0,3.0,67,0.00,,,0.00,Wunderground v.1.15,2013-02-18 20:49:00,
2013-02-18 15:54:00,25.4,15.3,30.34,SSW,204,3.0,6.0,65,0.00,,,0.00,Wunderground v.1.15,2013-02-18 20:54:00,
2013-02-18 16:04:00,25.6,16.5,30.34,SSW,205,3.0,5.0,68,0.00,,,0.00,Wunderground v.1.15,2013-02-18 21:04:00,
2013-02-18 16:09:00,25.7,15.6,30.34,SSW,204,3.0,4.0,65,0.00,,,0.00,Wunderground v.1.15,2013-02-18 21:09:00,
2013-02-18 16:14:00,25.8,15.6,30.33,SSW,203,4.0,4.0,65,0.00,,,0.00,Wunderground v.1.15,2013-02-18 21:14:00,
2013-02-18 16:29:00,26.0,15.8,30.33,SSW,203,3.0,3.0,65,0.00,,,0.00,Wunderground v.1.15,2013-02-18 21:29:00,
2013-02-18 16:34:00,26.1,15.9,30.33,SSW,203,3.0,10.0,65,0.00,,,0.00,Wunderground v.1.15,2013-02-18 21:34:00,
2013-02-18 16:39:00,26.1,15.9,30.32,SSW,203,4.0,4.0,65,0.00,,,0.00,Wunderground v.1.15,2013-02-18 21:39:00,
2013-02-18 16:44:00,26.3,16.5,30.32,SSW,203,4.0,10.0,66,0.00,,,0.00,Wunderground v.1.15,2013-02-18 21:44:00,
2013-02-18 16:49:00,26.2,15.3,30.32,SSW,204,4.0,10.0,63,0.00,,,0.00,Wunderground v.1.15,2013-02-18 21:49:00,
2013-02-18 16:54:00,26.1,15.6,30.32,SSW,204,4.0,10.0,64,0.00,,,0.00,Wunderground v.1.15,2013-02-18 21:54:00,
2013-02-18 16:59:00,26.0,15.8,30.32,SSW,204,3.0,5.0,65,0.00,,,0.00,Wunderground v.1.15,2013-02-18 21:59:00,
2013-02-18 17:09:00,25.6,15.8,30.31,SSW,204,1.0,1.0,66,0.00,,,0.00,Wunderground v.1.15,2013-02-18 22:09:00,
2013-02-18 17:14:00,25.6,15.8,30.31,SSW,204,1.0,1.0,66,0.00,,,0.00,Wunderground v.1.15,2013-02-18 22:14:00,
2013-02-18 17:19:00,25.4,15.6,30.31,SSW,204,0.0,0.0,66,0.00,,,0.00,Wunderground v.1.15,2013-02-18 22:19:00,
2013-02-18 17:24:00,25.2,15.4,30.31,SSW,204,0.0,0.0,66,0.00,,,0.00,Wunderground v.1.15,2013-02-18 22:24:00,
2013-02-18 17:34:00,24.9,15.1,30.31,SSW,204,0.0,9.0,66,0.00,,,0.00,Wunderground v.1.15,2013-02-18 22:34:00,
2013-02-18 17:39:00,24.8,14.7,30.31,SSW,204,0.0,9.0,65,0.00,,,0.00,Wunderground v.1.15,2013-02-18 22:39:00,
2013-02-18 17:44:00,24.6,14.5,30.30,SSW,204,0.0,9.0,65,0.00,,,0.00,Wunderground v.1.15,2013-02-18 22:44:00,
2013-02-18 17:54:00,24.4,14.7,30.30,SSW,204,0.0,9.0,66,0.00,,,0.00,Wunderground v.1.15,2013-02-18 22:54:00,
2013-02-18 17:59:00,24.4,14.3,30.30,SSW,204,0.0,0.0,65,0.00,,,0.00,Wunderground v.1.15,2013-02-18 22:59:00,
2013-02-18 18:04:00,24.4,14.3,30.30,SSW,204,1.0,1.0,65,0.00,,,0.00,Wunderground v.1.15,2013-02-18 23:04:00,
2013-02-18 18:14:00,24.7,14.2,30.30,SSW,202,2.0,4.0,64,0.00,,,0.00,Wunderground v.1.15,2013-02-18 23:14:00,
2013-02-18 18:19:00,24.9,14.1,30.30,SSW,201,3.0,3.0,63,0.00,,,0.00,Wunderground v.1.15,2013-02-18 23:19:00,
2013-02-18 18:24:00,25.1,14.3,30.29,SSW,198,3.0,5.0,63,0.00,,,0.00,Wunderground v.1.15,2013-02-18 23:24:00,
2013-02-18 18:29:00,25.3,14.5,30.29,SSW,202,3.0,3.0,63,0.00,,,0.00,Wunderground v.1.15,2013-02-18 23:29:00,
2013-02-18 18:39:00,25.7,15.2,30.28,SSW,203,4.0,4.0,64,0.00,,,0.00,Wunderground v.1.15,2013-02-18 23:39:00,
2013-02-18 18:44:00,26.1,15.2,30.28,SSW,204,4.0,7.0,63,0.00,,,0.00,Wunderground v.1.15,2013-02-18 23:44:00,
2013-02-18 18:54:00,26.4,15.5,30.28,SSW,205,5.0,5.0,63,0.00,,,0.00,Wunderground v.1.15,2013-02-18 23:54:00,
2013-02-18 18:59:00,26.4,15.9,30.28,WSW,238,2.0,2.0,64,0.00,,,0.00,Wunderground v.1.15,2013-02-18 23:59:00,
2013-02-18 19:09:00,26.4,15.9,30.27,SSW,211,2.0,11.0,64,0.00,,,0.00,Wunderground v.1.15,2013-02-19 00:09:00,
2013-02-18 19:19:00,26.9,15.6,30.27,SSW,207,7.0,7.0,62,0.00,,,0.00,Wunderground v.1.15,2013-02-19 00:19:00,
2013-02-18 19:24:00,27.1,15.8,30.26,SSW,205,6.0,9.0,62,0.00,,,0.00,Wunderground v.1.15,2013-02-19 00:24:00,
2013-02-18 19:29:00,27.0,16.1,30.26,SSW,203,5.0,6.0,63,0.00,,,0.00,Wunderground v.1.15,2013-02-19 00:29:00,
2013-02-18 19:34:00,27.1,16.2,30.26,SSW,204,5.0,9.0,63,0.00,,,0.00,Wunderground v.1.15,2013-02-19 00:34:00,
2013-02-18 19:39:00,27.2,16.3,30.26,SW,235,4.0,4.0,63,0.00,,,0.00,Wunderground v.1.15,2013-02-19 00:39:00,
2013-02-18 19:44:00,27.6,17.0,30.25,SSW,211,3.0,6.0,64,0.00,,,0.00,Wunderground v.1.15,2013-02-19 00:44:00,
2013-02-18 19:54:00,28.4,16.7,30.25,SSW,207,7.0,12.0,61,0.00,,,0.00,Wunderground v.1.15,2013-02-19 00:54:00,
2013-02-18 20:04:00,28.6,16.1,30.24,SSW,207,7.0,15.0,59,0.00,,,0.00,Wunderground v.1.15,2013-02-19 01:04:00,
2013-02-18 20:09:00,28.7,16.2,30.24,SSW,205,7.0,9.0,59,0.00,,,0.00,Wunderground v.1.15,2013-02-19 01:09:00,
2013-02-18 20:19:00,28.4,15.9,30.24,SSW,201,7.0,7.0,59,0.00,,,0.00,Wunderground v.1.15,2013-02-19 01:19:00,
2013-02-18 20:24:00,28.5,16.0,30.23,SW,232,7.0,7.0,59,0.00,,,0.00,Wunderground v.1.15,2013-02-19 01:24:00,
2013-02-18 20:34:00,28.5,16.4,30.22,WSW,246,5.0,14.0,60,0.00,,,0.00,Wunderground v.1.15,2013-02-19 01:34:00,
2013-02-18 20:39:00,28.7,16.2,30.22,SSW,195,4.0,4.0,59,0.00,,,0.00,Wunderground v.1.15,2013-02-19 01:39:00,
2013-02-18 20:49:00,28.8,16.3,30.22,SSW,212,5.0,5.0,59,0.00,,,0.00,Wunderground v.1.15,2013-02-19 01:49:00,
2013-02-18 20:54:00,28.9,16.4,30.22,SSW,213,6.0,9.0,59,0.00,,,0.00,Wunderground v.1.15,2013-02-19 01:54:00,
2013-02-18 20:59:00,29.0,16.4,30.22,SW,215,7.0,7.0,59,0.00,,,0.00,Wunderground v.1.15,2013-02-19 01:59:00,
2013-02-18 21:09:00,29.2,15.8,30.21,WSW,254,8.0,9.0,57,0.00,,,0.00,Wunderground v.1.15,2013-02-19 02:09:00,
2013-02-18 21:19:00,29.0,16.4,30.21,SSW,213,8.0,8.0,59,0.00,,,0.00,Wunderground v.1.15,2013-02-19 02:19:00,
2013-02-18 21:29:00,29.2,16.2,30.20,SSW,206,7.0,7.0,58,0.00,,,0.00,Wunderground v.1.15,2013-02-19 02:29:00,
2013-02-18 21:34:00,29.0,16.4,30.20,SSW,203,7.0,19.0,59,0.00,,,0.00,Wunderground v.1.15,2013-02-19 02:34:00,
2013-02-18 21:39:00,29.1,15.7,30.19,SSW,208,8.0,17.0,57,0.00,,,0.00,Wunderground v.1.15,2013-02-19 02:39:00,
2013-02-18 21:44:00,28.9,16.4,30.19,SSW,212,9.0,17.0,59,0.00,,,0.00,Wunderground v.1.15,2013-02-19 02:44:00,
2013-02-18 21:49:00,28.9,16.4,30.19,SW,218,7.0,7.0,59,0.00,,,0.00,Wunderground v.1.15,2013-02-19 02:49:00,
2013-02-18 21:54:00,28.9,16.0,30.18,WSW,240,8.0,8.0,58,0.00,,,0.00,Wunderground v.1.15,2013-02-19 02:54:00,
2013-02-18 22:04:00,28.8,16.3,30.18,SSW,209,5.0,7.0,59,0.00,,,0.00,Wunderground v.1.15,2013-02-19 03:04:00,
2013-02-18 22:09:00,28.8,16.6,30.18,SW,221,4.0,6.0,60,0.00,,,0.00,Wunderground v.1.15,2013-02-19 03:09:00,
2013-02-18 22:19:00,29.1,16.1,30.19,WSW,244,6.0,6.0,58,0.00,,,0.00,Wunderground v.1.15,2013-02-19 03:19:00,
2013-02-18 22:29:00,29.3,15.9,30.18,WSW,250,7.0,7.0,57,0.00,,,0.00,Wunderground v.1.15,2013-02-19 03:29:00,
2013-02-18 22:34:00,29.4,16.0,30.18,WSW,252,8.0,8.0,57,0.00,,,0.00,Wunderground v.1.15,2013-02-19 03:34:00,
2013-02-18 22:39:00,29.4,16.0,30.18,WSW,254,8.0,21.0,57,0.00,,,0.00,Wunderground v.1.15,2013-02-19 03:39:00,
2013-02-18 22:44:00,29.4,16.0,30.18,WSW,250,9.0,21.0,57,0.00,,,0.00,Wunderground v.1.15,2013-02-19 03:44:00,
2013-02-18 22:49:00,29.5,16.1,30.18,SW,232,9.0,9.0,57,0.00,,,0.00,Wunderground v.1.15,2013-02-19 03:49:00,
2013-02-18 22:59:00,29.5,16.1,30.17,SSE,161,8.0,12.0,57,0.00,,,0.00,Wunderground v.1.15,2013-02-19 03:59:00,
2013-02-18 23:09:00,29.6,16.2,30.18,WSW,246,10.0,10.0,57,0.00,,,0.00,Wunderground v.1.15,2013-02-19 04:09:00,
2013-02-18 23:14:00,29.7,15.9,30.18,WSW,240,10.0,14.0,56,0.00,,,0.00,Wunderground v.1.15,2013-02-19 04:14:00,
2013-02-18 23:19:00,29.7,15.9,30.18,WSW,241,9.0,9.0,56,0.00,,,0.00,Wunderground v.1.15,2013-02-19 04:19:00,
2013-02-18 23:24:00,29.7,15.9,30.18,WSW,248,9.0,10.0,56,0.00,,,0.00,Wunderground v.1.15,2013-02-19 04:24:00,
2013-02-18 23:34:00,29.5,16.5,30.18,WSW,249,10.0,15.0,58,0.00,,,0.00,Wunderground v.1.15,2013-02-19 04:34:00,
2013-02-18 23:39:00,29.4,16.8,30.18,WSW,240,9.0,20.0,59,0.00,,,0.00,Wunderground v.1.15,2013-02-19 04:39:00,
2013-02-18 23:44:00,29.4,16.4,30.18,WSW,242,8.0,20.0,58,0.00,,,0.00,Wunderground v.1.15,2013-02-19 04:44:00,
2013-02-18 23:49:00,29.4,16.8,30.18,SW,217,7.0,20.0,59,0.00,,,0.00,Wunderground v.1.15,2013-02-19 04:49:00,
2013-02-18 23:54:00,29.4,16.8,30.17,SSW,212,9.0,20.0,59,0.00,,,0.00,Wunderground v.1.15,2013-02-19 04:54:00,
2013-02-18 23:59:00,29.5,16.5,30.17,SSW,213,10.0,10.0,58,0.00,,,0.00,Wunderground v.1.15,2013-02-19 04:59:00,